createdAt,value
2022-10-13T00:01:37.779Z,11.40
2022-10-13T00:04:08.021Z,13.00
2022-10-13T00:06:36.444Z,12.37
2022-10-13T00:09:05.196Z,12.07
2022-10-13T00:11:33.974Z,11.77
2022-10-13T00:14:05.459Z,12.17
2022-10-13T00:16:37.467Z,12.90
2022-10-13T00:19:09.755Z,11.97
2022-10-13T00:21:41.302Z,10.83
2022-10-13T00:24:12.447Z,11.33
2022-10-13T00:26:42.042Z,11.13
2022-10-13T00:29:20.566Z,12.70
2022-10-13T00:31:50.692Z,11.20
2022-10-13T00:34:20.792Z,11.17
2022-10-13T00:36:49.431Z,12.17
2022-10-13T00:39:18.068Z,11.47
2022-10-13T00:41:46.611Z,12.00
2022-10-13T00:44:50.591Z,12.80
2022-10-13T00:47:19.825Z,11.00
2022-10-13T00:49:50.493Z,12.37
2022-10-13T00:52:21.548Z,11.37
2022-10-13T00:54:51.172Z,11.07
2022-10-13T00:57:23.110Z,11.20
2022-10-13T00:59:52.313Z,12.20
2022-10-13T01:02:21.062Z,13.07
2022-10-13T01:04:53.573Z,12.93
2022-10-13T01:07:22.321Z,12.43
2022-10-13T01:09:50.585Z,12.80
2022-10-13T01:12:30.564Z,12.57
2022-10-13T01:15:08.921Z,12.63
2022-10-13T01:17:48.876Z,12.27
2022-10-13T01:20:48.567Z,12.47
2022-10-13T01:23:46.553Z,12.63
2022-10-13T01:26:41.001Z,11.43
2022-10-13T01:29:33.855Z,11.63
2022-10-13T01:32:14.370Z,13.57
2022-10-13T01:34:48.231Z,12.13
2022-10-13T01:37:23.691Z,12.33
2022-10-13T01:39:55.444Z,13.80
2022-10-13T01:42:29.073Z,12.50
2022-10-13T01:45:01.745Z,13.03
2022-10-13T01:47:33.290Z,11.33
2022-10-13T01:50:03.512Z,12.30
2022-10-13T01:52:36.583Z,12.23
2022-10-13T01:55:08.560Z,12.73
2022-10-13T01:57:39.632Z,11.87
2022-10-13T02:00:11.468Z,11.13
2022-10-13T02:02:53.936Z,13.20
2022-10-13T02:05:30.145Z,11.33
2022-10-13T02:08:07.644Z,12.80
2022-10-13T02:10:45.945Z,12.20
2022-10-13T02:13:18.644Z,12.80
2022-10-13T02:15:51.303Z,13.40
2022-10-13T02:18:24.786Z,13.77
2022-10-13T02:20:54.634Z,14.03
2022-10-13T02:23:23.172Z,14.47
2022-10-13T02:25:52.217Z,15.27
2022-10-13T02:28:20.928Z,15.10
2022-10-13T02:30:49.309Z,15.00
2022-10-13T02:33:18.006Z,14.40
2022-10-13T02:35:47.686Z,15.30
2022-10-13T02:38:15.998Z,15.07
2022-10-13T02:40:44.482Z,13.30
2022-10-13T02:43:12.955Z,14.70
2022-10-13T02:45:41.479Z,13.57
2022-10-13T02:48:10.457Z,13.23
2022-10-13T02:50:38.957Z,12.93
2022-10-13T02:53:08.714Z,12.43
2022-10-13T02:55:37.079Z,12.57
2022-10-13T02:58:05.445Z,12.90
2022-10-13T03:00:33.870Z,13.03
2022-10-13T03:03:02.431Z,12.43
2022-10-13T03:05:30.938Z,12.07
2022-10-13T03:07:59.488Z,12.07
2022-10-13T03:10:29.608Z,11.03
2022-10-13T03:12:59.209Z,11.77
2022-10-13T03:15:27.637Z,11.63
2022-10-13T03:17:59.466Z,11.23
2022-10-13T03:20:28.083Z,11.13
2022-10-13T03:22:56.613Z,11.90
2022-10-13T03:25:25.200Z,12.43
2022-10-13T03:27:56.527Z,11.67
2022-10-13T03:30:24.993Z,11.77
2022-10-13T03:32:55.387Z,12.07
2022-10-13T03:35:24.870Z,12.37
2022-10-13T03:37:53.381Z,12.07
2022-10-13T03:40:24.935Z,11.60
2022-10-13T03:42:54.696Z,11.67
2022-10-13T03:45:23.008Z,11.37
2022-10-13T03:47:51.687Z,11.70
2022-10-13T03:50:20.258Z,12.73
2022-10-13T03:52:48.565Z,11.57
2022-10-13T03:55:17.097Z,12.20
2022-10-13T03:57:45.490Z,11.73
2022-10-13T04:00:16.984Z,10.27
2022-10-13T04:02:45.423Z,11.23
2022-10-13T04:05:14.028Z,11.60
2022-10-13T04:07:42.421Z,11.03
2022-10-13T04:10:19.886Z,11.83
2022-10-13T04:12:50.970Z,11.57
2022-10-13T04:15:20.881Z,10.87
2022-10-13T04:17:49.445Z,11.70
2022-10-13T04:20:18.223Z,10.20
2022-10-13T04:22:46.635Z,11.37
2022-10-13T04:25:15.021Z,12.40
2022-10-13T04:27:43.527Z,10.90
2022-10-13T04:30:13.642Z,10.67
2022-10-13T04:32:43.696Z,11.13
2022-10-13T04:35:13.129Z,10.77
2022-10-13T04:37:44.963Z,10.17
2022-10-13T04:40:14.649Z,10.77
2022-10-13T04:42:43.125Z,10.97
2022-10-13T04:45:11.878Z,10.30
2022-10-13T04:47:44.512Z,11.77
2022-10-13T04:50:12.867Z,11.27
2022-10-13T04:52:41.381Z,10.87
2022-10-13T04:55:10.304Z,10.93
2022-10-13T04:57:39.190Z,11.57
2022-10-13T05:00:09.073Z,11.57
2022-10-13T05:02:37.941Z,11.30
2022-10-13T05:05:09.012Z,11.90
2022-10-13T05:07:37.607Z,11.70
2022-10-13T05:10:06.677Z,11.57
2022-10-13T05:12:35.270Z,11.70
2022-10-13T05:15:03.898Z,11.27
2022-10-13T05:17:35.292Z,12.20
2022-10-13T05:20:12.486Z,12.43
2022-10-13T05:22:40.830Z,12.40
2022-10-13T05:25:09.417Z,12.20
2022-10-13T05:27:37.718Z,12.67
2022-10-13T05:30:10.020Z,12.23
2022-10-13T05:32:38.490Z,12.43
2022-10-13T05:35:07.742Z,13.10
2022-10-13T05:37:37.563Z,12.67
2022-10-13T05:40:06.640Z,12.60
2022-10-13T05:42:37.183Z,13.40
2022-10-13T05:45:06.459Z,12.73
2022-10-13T05:47:34.852Z,14.10
2022-10-13T05:50:03.372Z,12.83
2022-10-13T05:52:34.906Z,14.53
2022-10-13T05:55:07.954Z,13.90
2022-10-13T05:57:41.200Z,13.53
2022-10-13T06:00:11.889Z,13.53
2022-10-13T06:02:45.411Z,13.77
2022-10-13T06:05:17.599Z,13.20
2022-10-13T06:07:48.263Z,12.77
2022-10-13T06:10:18.778Z,13.73
2022-10-13T06:12:47.354Z,13.30
2022-10-13T06:15:16.117Z,13.80
2022-10-13T06:17:44.723Z,14.03
2022-10-13T06:20:13.745Z,13.43
2022-10-13T06:22:42.015Z,14.30
2022-10-13T06:25:11.087Z,14.40
2022-10-13T06:27:40.942Z,13.20
2022-10-13T06:30:10.703Z,13.30
2022-10-13T06:32:39.460Z,13.27
2022-10-13T06:35:09.059Z,12.90
2022-10-13T06:37:37.545Z,12.57
2022-10-13T06:40:07.325Z,13.83
2022-10-13T06:42:35.870Z,12.57
2022-10-13T06:45:12.522Z,13.10
2022-10-13T06:47:42.171Z,12.77
2022-10-13T06:50:11.527Z,13.40
2022-10-13T06:52:40.279Z,13.67
2022-10-13T06:55:09.562Z,14.40
2022-10-13T06:57:38.335Z,12.77
2022-10-13T07:00:09.049Z,12.93
2022-10-13T07:02:40.574Z,12.70
2022-10-13T07:05:09.959Z,14.17
2022-10-13T07:07:38.507Z,13.20
2022-10-13T07:10:10.235Z,12.40
2022-10-13T07:12:38.890Z,12.50
2022-10-13T07:15:08.490Z,14.60
2022-10-13T07:17:37.390Z,13.23
2022-10-13T07:20:08.709Z,12.77
2022-10-13T07:22:37.096Z,12.20
2022-10-13T07:25:06.280Z,13.13
2022-10-13T07:27:34.651Z,13.00
2022-10-13T07:30:03.077Z,12.27
2022-10-13T07:32:32.532Z,12.80
2022-10-13T07:35:04.386Z,12.97
2022-10-13T07:37:34.362Z,12.73
2022-10-13T07:40:02.921Z,12.30
2022-10-13T07:42:32.460Z,11.67
2022-10-13T07:45:01.081Z,13.70
2022-10-13T07:47:31.971Z,12.10
2022-10-13T07:50:00.388Z,12.27
2022-10-13T07:52:28.792Z,12.60
2022-10-13T07:54:58.693Z,13.33
2022-10-13T07:57:27.894Z,13.13
2022-10-13T07:59:56.456Z,13.63
2022-10-13T08:02:25.005Z,12.00
2022-10-13T08:04:53.723Z,11.67
2022-10-13T08:07:22.832Z,12.60
2022-10-13T08:09:51.873Z,12.17
2022-10-13T08:12:22.156Z,13.40
2022-10-13T08:14:52.447Z,12.47
2022-10-13T08:17:21.241Z,12.53
2022-10-13T08:19:52.185Z,11.77
2022-10-13T08:22:25.925Z,13.03
2022-10-13T08:24:57.090Z,12.67
2022-10-13T08:27:49.627Z,12.43
2022-10-13T08:30:18.334Z,12.00
2022-10-13T08:32:46.968Z,12.17
2022-10-13T08:35:16.089Z,11.60
2022-10-13T08:37:50.673Z,12.20
2022-10-13T08:40:23.153Z,12.30
2022-10-13T08:42:56.720Z,12.57
2022-10-13T08:45:46.956Z,12.03
2022-10-13T08:48:19.856Z,12.13
2022-10-13T08:50:52.202Z,12.33
2022-10-13T08:53:29.569Z,12.23
2022-10-13T08:56:00.481Z,12.17
2022-10-13T08:58:35.457Z,12.17
2022-10-13T09:01:14.604Z,11.63
2022-10-13T09:03:50.741Z,11.70
2022-10-13T09:06:27.883Z,12.70
2022-10-13T09:08:59.124Z,11.87
2022-10-13T09:11:29.974Z,11.57
2022-10-13T09:14:02.663Z,12.40
2022-10-13T09:16:38.509Z,12.00
2022-10-13T09:19:21.084Z,12.43
2022-10-13T09:21:50.318Z,12.07
2022-10-13T09:24:21.922Z,11.70
2022-10-13T09:26:52.885Z,11.33
2022-10-13T09:29:27.700Z,11.57
2022-10-13T09:32:11.376Z,11.40
2022-10-13T09:34:40.166Z,11.23
2022-10-13T09:37:19.489Z,11.47
2022-10-13T09:40:01.453Z,11.77
2022-10-13T09:42:32.966Z,10.60
2022-10-13T09:45:17.013Z,10.60
2022-10-13T09:47:52.942Z,11.43
2022-10-13T09:50:24.691Z,10.53
2022-10-13T09:52:54.051Z,10.23
2022-10-13T09:55:32.770Z,10.83
2022-10-13T09:58:06.331Z,9.43
2022-10-13T10:00:37.823Z,9.03
2022-10-13T10:03:12.252Z,9.87
2022-10-13T10:05:50.918Z,10.10
2022-10-13T10:08:33.742Z,10.10
2022-10-13T10:11:14.016Z,9.60
2022-10-13T10:13:42.401Z,9.53
2022-10-13T10:16:20.520Z,9.53
2022-10-13T10:18:58.626Z,8.97
2022-10-13T10:21:36.283Z,8.80
2022-10-13T10:24:18.194Z,9.13
2022-10-13T10:26:56.154Z,9.13
2022-10-13T10:29:33.748Z,8.50
2022-10-13T10:32:18.001Z,8.83
2022-10-13T10:34:52.979Z,8.33
2022-10-13T10:37:33.979Z,8.37
2022-10-13T10:40:13.091Z,8.10
2022-10-13T10:43:14.359Z,8.83
2022-10-13T10:45:44.818Z,7.90
2022-10-13T10:48:21.221Z,9.93
2022-10-13T10:50:50.994Z,8.23
2022-10-13T10:53:30.605Z,8.47
2022-10-13T10:56:04.892Z,8.27
2022-10-13T10:58:40.660Z,7.97
2022-10-13T11:01:22.651Z,8.00
2022-10-13T11:03:59.459Z,8.47
2022-10-13T11:06:36.269Z,8.60
2022-10-13T11:09:07.092Z,7.50
2022-10-13T11:11:40.461Z,8.50
2022-10-13T11:14:32.092Z,9.57
2022-10-13T11:17:19.020Z,7.97
2022-10-13T11:19:50.043Z,7.97
2022-10-13T11:22:21.770Z,8.07
2022-10-13T11:24:57.356Z,7.97
2022-10-13T11:27:29.194Z,7.87
2022-10-13T11:29:59.789Z,7.63
2022-10-13T11:32:55.704Z,7.53
2022-10-13T11:35:38.193Z,8.13
2022-10-13T11:38:29.693Z,8.00
2022-10-13T11:41:12.846Z,7.63
2022-10-13T11:43:54.573Z,8.40
2022-10-13T11:46:40.261Z,8.20
2022-10-13T11:49:33.901Z,8.13
2022-10-13T11:52:28.415Z,8.30
2022-10-13T11:55:04.212Z,8.30
2022-10-13T11:57:32.947Z,8.00
2022-10-13T12:00:05.461Z,8.57
2022-10-13T12:02:50.641Z,7.73
2022-10-13T12:05:23.655Z,7.33
2022-10-13T12:07:55.924Z,7.23
2022-10-13T12:10:30.427Z,7.60
2022-10-13T12:12:59.614Z,6.90
2022-10-13T12:15:33.318Z,7.30
2022-10-13T12:18:01.944Z,7.03
2022-10-13T12:20:33.101Z,7.70
2022-10-13T12:23:03.098Z,7.50
2022-10-13T12:25:33.811Z,8.03
2022-10-13T12:28:02.558Z,7.50
2022-10-13T12:30:36.232Z,7.70
2022-10-13T12:33:24.202Z,8.20
2022-10-13T12:35:52.758Z,7.87
2022-10-13T12:38:24.651Z,7.87
2022-10-13T12:40:54.722Z,7.57
2022-10-13T12:43:27.135Z,8.00
2022-10-13T12:45:55.867Z,7.77
2022-10-13T12:48:32.541Z,8.70
2022-10-13T12:51:23.118Z,8.20
2022-10-13T12:53:53.091Z,7.77
2022-10-13T12:56:28.909Z,8.27
2022-10-13T12:58:58.263Z,8.20
2022-10-13T13:01:33.219Z,8.50
2022-10-13T13:04:16.363Z,7.60
2022-10-13T13:06:55.595Z,8.67
2022-10-13T13:09:30.657Z,8.17
2022-10-13T13:12:08.041Z,7.93
2022-10-13T13:14:39.165Z,8.27
2022-10-13T13:17:12.616Z,8.53
2022-10-13T13:19:42.525Z,8.20
2022-10-13T13:22:12.285Z,7.80
2022-10-13T13:24:42.400Z,8.47
2022-10-13T13:27:19.390Z,7.90
2022-10-13T13:29:48.589Z,8.63
2022-10-13T13:32:20.379Z,9.10
2022-10-13T13:34:49.550Z,8.70
2022-10-13T13:37:31.501Z,9.30
2022-10-13T13:40:01.845Z,9.60
2022-10-13T13:42:30.701Z,9.77
2022-10-13T13:44:59.176Z,9.73
2022-10-13T13:47:29.783Z,9.80
2022-10-13T13:49:58.746Z,10.33
2022-10-13T13:52:27.297Z,10.33
2022-10-13T13:54:56.747Z,10.47
2022-10-13T13:57:26.653Z,9.53
2022-10-13T13:59:55.091Z,11.83
2022-10-13T14:02:23.696Z,10.90
2022-10-13T14:04:53.429Z,10.63
2022-10-13T14:07:22.278Z,11.33
2022-10-13T14:09:53.779Z,11.13
2022-10-13T14:12:24.242Z,11.50
2022-10-13T14:14:54.137Z,12.13
2022-10-13T14:17:23.619Z,11.90
2022-10-13T14:19:52.077Z,12.47
2022-10-13T14:22:21.094Z,11.90
2022-10-13T14:24:49.909Z,11.10
2022-10-13T14:27:18.471Z,11.30
2022-10-13T14:29:47.250Z,11.57
2022-10-13T14:32:18.979Z,12.33
2022-10-13T14:34:47.742Z,10.63
2022-10-13T14:37:18.847Z,11.77
2022-10-13T14:39:49.372Z,12.10
2022-10-13T14:42:17.895Z,12.30
2022-10-13T14:44:46.437Z,12.50
2022-10-13T14:47:14.805Z,12.53
2022-10-13T14:49:44.549Z,13.50
2022-10-13T14:52:13.004Z,13.30
2022-10-13T14:54:44.882Z,13.77
2022-10-13T14:57:16.097Z,13.97
2022-10-13T14:59:45.456Z,14.50
2022-10-13T15:02:15.020Z,14.40
2022-10-13T15:04:54.195Z,14.07
2022-10-13T15:07:23.164Z,14.17
2022-10-13T15:10:00.590Z,15.47
2022-10-13T15:12:33.123Z,14.37
2022-10-13T15:15:01.667Z,17.07
2022-10-13T15:17:33.289Z,16.77
2022-10-13T15:20:03.898Z,16.40
2022-10-13T15:22:32.594Z,16.77
2022-10-13T15:25:01.155Z,17.73
2022-10-13T15:27:29.664Z,17.80
2022-10-13T15:29:58.246Z,21.03
2022-10-13T15:32:26.789Z,23.77
2022-10-13T15:35:03.709Z,21.90
2022-10-13T15:37:35.754Z,19.37
2022-10-13T15:40:04.353Z,18.20
2022-10-13T15:42:32.678Z,20.83
2022-10-13T15:45:10.360Z,19.97
2022-10-13T15:47:40.111Z,19.70
2022-10-13T15:50:10.570Z,20.67
2022-10-13T15:52:41.043Z,19.53
2022-10-13T15:55:10.862Z,21.30
2022-10-13T15:57:39.449Z,20.47
2022-10-13T16:00:10.266Z,21.67
2022-10-13T16:02:41.983Z,21.17
2022-10-13T16:05:13.818Z,21.40
2022-10-13T16:07:42.881Z,21.80
2022-10-13T16:10:13.438Z,22.33
2022-10-13T16:12:46.969Z,20.40
2022-10-13T16:15:19.854Z,20.73
2022-10-13T16:17:48.289Z,21.37
2022-10-13T16:20:18.107Z,22.00
2022-10-13T16:22:47.287Z,20.63
2022-10-13T16:25:15.845Z,21.83
2022-10-13T16:27:44.784Z,22.30
2022-10-13T16:30:13.902Z,22.03
2022-10-13T16:32:42.502Z,22.80
2022-10-13T16:35:11.932Z,21.63
2022-10-13T16:37:42.083Z,21.90
2022-10-13T16:40:11.566Z,21.77
2022-10-13T16:42:39.942Z,23.57
2022-10-13T16:45:09.449Z,23.80
2022-10-13T16:47:37.831Z,23.00
2022-10-13T16:50:09.751Z,23.83
2022-10-13T16:52:38.502Z,23.97
2022-10-13T16:55:10.512Z,22.93
2022-10-13T16:57:38.967Z,24.20
2022-10-13T17:00:08.825Z,23.77
2022-10-13T17:02:37.476Z,24.57
2022-10-13T17:05:06.432Z,24.57
2022-10-13T17:07:34.917Z,24.63
2022-10-13T17:10:04.283Z,25.90
2022-10-13T17:12:34.432Z,23.87
2022-10-13T17:15:03.332Z,23.53
2022-10-13T17:17:31.827Z,25.37
2022-10-13T17:20:00.266Z,24.40
2022-10-13T17:22:29.078Z,24.27
2022-10-13T17:24:57.499Z,23.93
2022-10-13T17:27:25.988Z,24.13
2022-10-13T17:29:56.040Z,23.77
2022-10-13T17:32:24.694Z,24.87
2022-10-13T17:34:53.746Z,24.30
2022-10-13T17:37:22.741Z,24.83
2022-10-13T17:39:51.545Z,22.13
2022-10-13T17:42:19.971Z,23.13
2022-10-13T17:44:50.139Z,23.93
2022-10-13T17:47:20.173Z,23.93
2022-10-13T17:49:48.906Z,24.10
2022-10-13T17:52:20.097Z,24.27
2022-10-13T17:54:49.328Z,25.60
2022-10-13T17:57:18.348Z,25.63
2022-10-13T17:59:47.238Z,24.07
2022-10-13T18:02:15.846Z,25.93
2022-10-13T18:04:46.618Z,25.07
2022-10-13T18:07:15.159Z,23.43
2022-10-13T18:09:43.681Z,23.70
2022-10-13T18:12:12.183Z,22.80
2022-10-13T18:14:40.628Z,24.37
2022-10-13T18:17:09.241Z,23.87
2022-10-13T18:19:40.460Z,22.13
2022-10-13T18:22:10.666Z,23.20
2022-10-13T18:24:39.645Z,21.73
2022-10-13T18:27:08.121Z,22.33
2022-10-13T18:29:37.239Z,22.67
2022-10-13T18:32:05.879Z,22.80
2022-10-13T18:34:34.552Z,22.40
2022-10-13T18:37:05.632Z,21.97
2022-10-13T18:39:35.520Z,22.73
2022-10-13T18:42:04.126Z,22.23
2022-10-13T18:44:38.452Z,20.70
2022-10-13T18:47:09.594Z,21.27
2022-10-13T18:49:38.092Z,21.13
2022-10-13T18:52:06.724Z,20.43
2022-10-13T18:54:41.116Z,20.53
2022-10-13T18:57:09.634Z,20.10
2022-10-13T18:59:41.009Z,19.63
2022-10-13T19:02:10.574Z,20.13
2022-10-13T19:04:39.139Z,19.03
2022-10-13T19:07:07.738Z,18.53
2022-10-13T19:09:36.330Z,18.67
2022-10-13T19:12:06.862Z,18.87
2022-10-13T19:14:35.160Z,18.67
2022-10-13T19:17:03.933Z,19.57
2022-10-13T19:19:35.366Z,18.60
2022-10-13T19:22:03.846Z,17.53
2022-10-13T19:24:32.539Z,17.83
2022-10-13T19:27:01.166Z,15.83
2022-10-13T19:29:32.835Z,16.70
2022-10-13T19:32:01.990Z,15.20
2022-10-13T19:34:30.487Z,14.63
2022-10-13T19:37:01.932Z,15.40
2022-10-13T19:39:31.382Z,13.97
2022-10-13T19:42:01.130Z,15.07
2022-10-13T19:44:31.663Z,14.00
2022-10-13T19:47:00.241Z,13.60
2022-10-13T19:49:28.922Z,12.60
2022-10-13T19:51:57.500Z,13.37
2022-10-13T19:54:30.157Z,13.43
2022-10-13T19:57:01.903Z,13.87
2022-10-13T19:59:31.864Z,14.03
2022-10-13T20:02:00.475Z,13.53
2022-10-13T20:04:29.080Z,13.60
2022-10-13T20:06:57.590Z,12.70
2022-10-13T20:09:25.980Z,12.20
2022-10-13T20:11:54.641Z,12.10
2022-10-13T20:14:23.635Z,12.13
2022-10-13T20:16:53.606Z,12.43
2022-10-13T20:19:22.166Z,12.73
2022-10-13T20:21:53.075Z,12.00
2022-10-13T20:24:23.246Z,12.47
2022-10-13T20:26:51.806Z,11.33
2022-10-13T20:29:23.859Z,11.63
2022-10-13T20:31:53.710Z,10.67
2022-10-13T20:34:22.322Z,11.30
2022-10-13T20:36:51.876Z,11.40
2022-10-13T20:39:20.686Z,10.47
2022-10-13T20:41:49.199Z,11.33
2022-10-13T20:44:19.062Z,11.03
2022-10-13T20:46:47.709Z,10.60
2022-10-13T20:49:17.842Z,10.27
2022-10-13T20:51:46.910Z,10.13
2022-10-13T20:54:17.394Z,10.47
2022-10-13T20:56:47.359Z,10.10
2022-10-13T20:59:16.264Z,10.07
2022-10-13T21:01:45.359Z,10.40
2022-10-13T21:04:14.009Z,9.83
2022-10-13T21:06:44.166Z,10.40
2022-10-13T21:09:12.984Z,10.53
2022-10-13T21:11:43.505Z,10.37
2022-10-13T21:14:12.124Z,10.30
2022-10-13T21:16:40.660Z,10.43
2022-10-13T21:19:14.151Z,10.27
2022-10-13T21:21:44.166Z,9.63
2022-10-13T21:24:13.372Z,9.43
2022-10-13T21:26:43.676Z,9.37
2022-10-13T21:29:15.768Z,8.67
2022-10-13T21:31:44.578Z,9.47
2022-10-13T21:34:14.060Z,9.27
2022-10-13T21:36:45.416Z,10.53
2022-10-13T21:39:15.009Z,8.73
2022-10-13T21:41:43.755Z,8.40
2022-10-13T21:44:14.107Z,9.63
2022-10-13T21:46:42.770Z,8.40
2022-10-13T21:49:11.688Z,9.40
2022-10-13T21:51:41.737Z,8.40
2022-10-13T21:54:13.566Z,8.60
2022-10-13T21:56:43.217Z,8.43
2022-10-13T21:59:12.959Z,8.73
2022-10-13T22:01:41.880Z,9.77
2022-10-13T22:04:14.552Z,9.80
2022-10-13T22:06:43.894Z,9.73
2022-10-13T22:09:14.181Z,9.87
2022-10-13T22:11:43.082Z,9.43
2022-10-13T22:14:14.756Z,9.97
2022-10-13T22:16:45.576Z,10.03
2022-10-13T22:19:15.118Z,9.97
2022-10-13T22:21:45.173Z,10.33
2022-10-13T22:24:16.687Z,10.20
2022-10-13T22:26:46.411Z,10.27
2022-10-13T22:29:17.718Z,10.50
2022-10-13T22:31:46.917Z,10.87
2022-10-13T22:34:16.084Z,11.13
2022-10-13T22:36:45.386Z,10.97
2022-10-13T22:39:15.836Z,12.37
2022-10-13T22:41:44.573Z,13.37
2022-10-13T22:44:13.463Z,13.80
2022-10-13T22:46:42.407Z,13.13
2022-10-13T22:49:14.936Z,14.30
2022-10-13T22:51:43.529Z,14.80
2022-10-13T22:54:12.616Z,14.60
2022-10-13T22:56:43.250Z,15.30
2022-10-13T22:59:13.959Z,14.47
2022-10-13T23:01:42.377Z,15.77
2022-10-13T23:04:10.777Z,15.43
2022-10-13T23:06:40.109Z,15.63
2022-10-13T23:09:12.300Z,16.47
2022-10-13T23:11:42.118Z,16.17
2022-10-13T23:14:12.438Z,16.57
2022-10-13T23:16:41.185Z,17.03
2022-10-13T23:19:10.167Z,17.43
2022-10-13T23:21:38.503Z,16.73
2022-10-13T23:24:08.363Z,17.27
2022-10-13T23:26:36.899Z,17.93
2022-10-13T23:29:06.836Z,17.20
2022-10-13T23:31:35.411Z,16.63
2022-10-13T23:34:03.829Z,17.93
2022-10-13T23:36:33.918Z,16.73
2022-10-13T23:39:06.040Z,17.67
2022-10-13T23:41:35.619Z,16.03
2022-10-13T23:44:04.541Z,17.03
2022-10-13T23:46:34.371Z,17.47
2022-10-13T23:49:02.790Z,17.70
2022-10-13T23:51:31.726Z,17.10
2022-10-13T23:54:00.925Z,17.47
2022-10-13T23:56:29.436Z,19.17
2022-10-13T23:58:57.745Z,18.63
